Time;durP1;ratioP1;P1;durP2;ratioP2;P2;SDS_P1;SDS_P2;PMS_P1;PMS_P2;Temp;Humidity;BMP_temperature;BMP_pressure;BME280_temperature;BME280_humidity;BME280_pressure;Samples;Min_cycle;Max_cycle;Signal;HPM_P1;HPM_P2
2022/04/09 00:00:17;;;;;;;6.57;2.00;;;6.70;73.50;;;;;;5133705;28;20028;-64
2022/04/09 00:02:43;;;;;;;9.88;2.42;;;6.70;73.50;;;;;;5133721;28;20024;-64
2022/04/09 00:05:11;;;;;;;9.82;1.98;;;6.70;73.60;;;;;;5133690;28;20024;-64
2022/04/09 00:07:37;;;;;;;8.82;1.98;;;6.70;73.60;;;;;;5133560;28;20019;-64
2022/04/09 00:10:05;;;;;;;10.50;2.33;;;6.70;73.60;;;;;;5133659;28;20027;-64
2022/04/09 00:12:31;;;;;;;12.32;2.05;;;6.70;73.50;;;;;;5133635;28;20016;-64
2022/04/09 00:14:57;;;;;;;8.65;1.50;;;6.70;73.50;;;;;;5133611;28;20030;-64
2022/04/09 00:17:23;;;;;;;6.53;1.80;;;6.70;73.40;;;;;;5136919;28;20031;-64
2022/04/09 00:19:48;;;;;;;7.00;2.08;;;6.70;73.50;;;;;;5137604;28;20031;-64
2022/04/09 00:22:15;;;;;;;6.25;1.65;;;6.70;73.50;;;;;;5137643;28;20024;-64
2022/04/09 00:24:40;;;;;;;7.05;1.73;;;6.70;73.50;;;;;;5137579;27;20020;-64
2022/04/09 00:27:06;;;;;;;4.55;2.08;;;6.70;73.60;;;;;;5137436;28;20472;-64
2022/04/09 00:29:32;;;;;;;12.02;2.40;;;6.60;73.90;;;;;;5136429;28;20019;-64
2022/04/09 00:31:57;;;;;;;8.15;1.92;;;6.60;74.10;;;;;;5136496;28;20054;-64
2022/04/09 00:34:23;;;;;;;9.73;1.52;;;6.60;74.20;;;;;;5137476;28;20019;-64
2022/04/09 00:36:49;;;;;;;7.57;2.20;;;6.60;74.20;;;;;;5136179;28;20027;-65
2022/04/09 00:39:14;;;;;;;11.13;1.70;;;6.60;74.30;;;;;;5137262;28;20101;-65
2022/04/09 00:41:41;;;;;;;7.28;1.42;;;6.60;74.10;;;;;;5137204;28;20032;-64
2022/04/09 00:44:20;;;;;;;5.72;1.88;;;6.60;73.90;;;;;;5137171;28;20024;-64
2022/04/09 00:46:47;;;;;;;9.18;1.63;;;6.60;74.00;;;;;;5136005;28;20039;-64
2022/04/09 00:49:14;;;;;;;7.50;1.58;;;6.60;74.00;;;;;;5137151;27;20069;-64
2022/04/09 00:51:41;;;;;;;7.43;1.38;;;6.60;74.10;;;;;;5137054;28;20016;-64
2022/04/09 00:54:12;;;;;;;9.50;1.55;;;6.60;74.00;;;;;;5137032;28;20020;-64
2022/04/09 00:56:41;;;;;;;7.65;1.73;;;6.60;74.10;;;;;;5137004;28;20031;-64
2022/04/09 00:59:11;;;;;;;11.77;2.22;;;6.60;74.10;;;;;;5136883;28;20024;-64
2022/04/09 01:01:38;;;;;;;6.22;1.27;;;6.60;74.30;;;;;;5136893;28;20027;-64
2022/04/09 01:04:13;;;;;;;7.57;1.42;;;6.60;74.30;;;;;;5136826;27;20024;-64
2022/04/09 01:06:39;;;;;;;9.38;1.63;;;6.60;74.20;;;;;;5136689;28;20032;-64
2022/04/09 01:09:06;;;;;;;7.95;1.88;;;6.60;75.10;;;;;;5136743;28;20027;-65
2022/04/09 01:11:33;;;;;;;8.07;1.42;;;6.60;74.30;;;;;;5136685;27;20016;-64
2022/04/09 01:13:59;;;;;;;7.85;1.42;;;6.60;74.20;;;;;;5136618;28;20023;-64
2022/04/09 01:16:28;;;;;;;7.63;2.40;;;6.50;74.40;;;;;;5136608;28;20020;-64
2022/04/09 01:18:55;;;;;;;10.60;1.55;;;6.50;74.50;;;;;;5136573;28;20022;-64
2022/04/09 01:21:24;;;;;;;8.90;1.52;;;6.50;74.60;;;;;;5136499;28;20028;-64
2022/04/09 01:23:49;;;;;;;5.15;1.20;;;6.50;74.70;;;;;;5136451;28;20020;-64
2022/04/09 01:26:16;;;;;;;7.82;1.70;;;6.50;74.70;;;;;;5135302;28;20104;-64
2022/04/09 01:28:42;;;;;;;8.13;1.70;;;6.50;74.70;;;;;;5136081;28;20016;-64
2022/04/09 01:31:07;;;;;;;12.02;1.75;;;6.50;74.80;;;;;;5135303;28;20057;-64
2022/04/09 01:33:33;;;;;;;4.88;1.20;;;6.50;74.80;;;;;;5136219;28;20024;-64
2022/04/09 01:35:59;;;;;;;5.65;1.15;;;6.50;74.80;;;;;;5136197;28;20045;-64
2022/04/09 01:38:24;;;;;;;9.70;1.63;;;6.50;75.10;;;;;;5135981;28;20552;-64
2022/04/09 01:40:50;;;;;;;6.72;1.40;;;6.40;75.20;;;;;;5135130;28;20091;-64
2022/04/09 01:43:16;;;;;;;9.65;2.05;;;6.40;75.20;;;;;;5136081;28;20023;-64
2022/04/09 01:45:41;;;;;;;8.85;1.40;;;6.50;75.00;;;;;;5136002;28;20023;-64
2022/04/09 01:48:07;;;;;;;5.57;1.20;;;6.40;74.90;;;;;;5135868;28;20028;-64
2022/04/09 01:50:33;;;;;;;11.60;1.73;;;6.40;74.90;;;;;;5135884;28;20028;-64
2022/04/09 01:52:59;;;;;;;7.35;1.33;;;6.50;74.80;;;;;;5135870;28;20057;-64
2022/04/09 01:55:26;;;;;;;9.02;1.27;;;6.50;74.80;;;;;;5135829;28;20028;-65
2022/04/09 01:57:52;;;;;;;8.73;1.40;;;6.50;74.80;;;;;;5135774;28;20084;-65
2022/04/09 02:00:18;;;;;;;12.80;1.50;;;6.50;75.60;;;;;;5134658;28;20032;-64
2022/04/09 02:02:44;;;;;;;7.65;1.88;;;6.40;74.70;;;;;;5135695;28;20050;-67
2022/04/09 02:05:12;;;;;;;5.47;1.30;;;6.40;74.70;;;;;;5135664;28;20028;-64
2022/04/09 02:07:39;;;;;;;9.52;1.40;;;6.40;74.60;;;;;;5135570;28;20076;-64
2022/04/09 02:10:05;;;;;;;6.70;1.05;;;6.40;74.60;;;;;;5135442;28;20023;-64
2022/04/09 02:12:35;;;;;;;7.65;1.52;;;6.40;74.60;;;;;;5135486;28;20496;-64
2022/04/09 02:15:09;;;;;;;8.50;1.33;;;6.40;74.60;;;;;;5135441;28;20027;-64
2022/04/09 02:17:36;;;;;;;9.48;1.63;;;6.40;74.60;;;;;;5135406;28;20030;-64
2022/04/09 02:20:03;;;;;;;7.05;1.35;;;6.40;74.60;;;;;;5135327;28;20023;-64
2022/04/09 02:22:43;;;;;;;8.85;1.55;;;6.40;74.60;;;;;;5135276;28;20023;-64
2022/04/09 02:25:11;;;;;;;8.23;1.48;;;6.40;74.50;;;;;;5135385;28;20027;-65
2022/04/09 02:27:37;;;;;;;6.22;1.33;;;6.40;74.60;;;;;;5135028;28;20027;-64
2022/04/09 02:30:04;;;;;;;8.02;1.63;;;6.40;74.60;;;;;;5135161;28;20020;-64
2022/04/09 02:32:30;;;;;;;8.43;1.40;;;6.40;74.60;;;;;;5134028;28;20053;-64
2022/04/09 02:34:56;;;;;;;7.47;1.60;;;6.40;74.80;;;;;;5134172;28;20024;-64
2022/04/09 02:37:22;;;;;;;8.57;1.23;;;6.40;75.50;;;;;;5134733;28;20044;-64
2022/04/09 02:39:48;;;;;;;11.77;1.33;;;6.50;75.40;;;;;;5133236;28;20024;-64
2022/04/09 02:42:14;;;;;;;6.68;1.23;;;6.50;75.30;;;;;;5134839;28;20058;-64
2022/04/09 02:44:40;;;;;;;6.35;1.30;;;6.60;75.30;;;;;;5134985;28;20045;-64
2022/04/09 02:47:06;;;;;;;5.65;1.63;;;6.60;75.20;;;;;;5134720;28;20024;-64
2022/04/09 02:49:32;;;;;;;10.18;1.30;;;6.70;75.10;;;;;;5134742;28;20107;-64
2022/04/09 02:51:58;;;;;;;6.20;1.75;;;6.70;75.20;;;;;;5134713;28;20023;-64
2022/04/09 02:54:23;;;;;;;12.43;2.65;;;6.80;75.40;;;;;;5134791;28;20028;-64
2022/04/09 02:56:49;;;;;;;8.18;1.60;;;6.80;75.40;;;;;;5134710;28;20031;-64
2022/04/09 02:59:15;;;;;;;7.97;2.15;;;6.70;75.40;;;;;;5134680;28;20051;-64
2022/04/09 03:01:45;;;;;;;5.80;1.33;;;6.80;75.30;;;;;;5134526;28;20032;-64
2022/04/09 03:04:11;;;;;;;8.02;1.77;;;6.80;75.10;;;;;;5134643;28;20020;-64
2022/04/09 03:06:36;;;;;;;7.63;1.65;;;6.70;74.90;;;;;;5134324;28;20039;-64
2022/04/09 03:09:03;;;;;;;9.48;2.05;;;6.70;74.90;;;;;;5134464;28;20058;-64
2022/04/09 03:11:28;;;;;;;9.25;1.90;;;6.60;74.80;;;;;;5134374;28;20020;-65
2022/04/09 03:13:54;;;;;;;13.20;1.98;;;6.60;74.70;;;;;;5134422;28;20049;-64
2022/04/09 03:16:19;;;;;;;4.55;1.33;;;6.60;74.80;;;;;;5134239;28;20059;-64
2022/04/09 03:18:45;;;;;;;13.45;1.77;;;6.60;74.90;;;;;;5134222;28;20042;-64
2022/04/09 03:21:11;;;;;;;9.85;1.70;;;6.60;75.10;;;;;;5134326;28;20031;-64
2022/04/09 03:23:36;;;;;;;8.25;1.75;;;6.50;75.40;;;;;;5134138;28;20034;-64
2022/04/09 03:26:02;;;;;;;8.82;1.40;;;6.50;75.40;;;;;;5134054;28;20075;-65
2022/04/09 03:28:28;;;;;;;8.75;1.83;;;6.50;75.60;;;;;;5133985;28;20391;-64
2022/04/09 03:30:53;;;;;;;6.97;1.55;;;6.50;75.60;;;;;;5133103;28;20020;-64
2022/04/09 03:33:19;;;;;;;6.40;1.25;;;6.50;75.50;;;;;;5133979;28;20030;-64
2022/04/09 03:35:46;;;;;;;5.85;1.30;;;6.40;75.40;;;;;;5134011;28;20092;-64
2022/04/09 03:38:12;;;;;;;7.88;1.60;;;6.40;75.20;;;;;;5133428;28;20055;-64
2022/04/09 03:40:38;;;;;;;6.55;1.20;;;6.40;75.40;;;;;;5133162;28;20038;-64
2022/04/09 03:43:04;;;;;;;4.97;1.60;;;6.40;75.30;;;;;;5133116;28;20045;-64
2022/04/09 03:45:30;;;;;;;18.30;1.50;;;6.30;75.20;;;;;;5133087;28;20028;-65
2022/04/09 03:47:56;;;;;;;4.35;0.88;;;6.30;75.00;;;;;;5132964;28;20045;-64
2022/04/09 03:50:21;;;;;;;5.72;1.17;;;6.30;75.00;;;;;;5131831;28;20116;-64
2022/04/09 03:52:48;;;;;;;5.18;1.17;;;6.30;75.00;;;;;;5132924;28;20026;-64
2022/04/09 03:55:14;;;;;;;5.50;1.17;;;6.30;74.90;;;;;;5132973;28;20488;-64
2022/04/09 03:57:40;;;;;;;6.72;1.10;;;6.30;74.80;;;;;;5132980;28;20054;-64
2022/04/09 04:00:08;;;;;;;5.00;1.20;;;6.30;74.80;;;;;;5132928;28;20024;-64
2022/04/09 04:02:34;;;;;;;4.10;0.95;;;6.30;74.90;;;;;;5132909;28;20444;-64
2022/04/09 04:05:02;;;;;;;4.50;1.20;;;6.20;74.90;;;;;;5132810;28;20028;-65
2022/04/09 04:07:29;;;;;;;6.88;1.58;;;6.30;74.90;;;;;;5132722;28;20024;-64
2022/04/09 04:09:55;;;;;;;8.85;1.52;;;6.20;74.90;;;;;;5132809;28;20536;-64
2022/04/09 04:12:20;;;;;;;5.40;0.90;;;6.20;74.90;;;;;;5132749;28;20024;-65
2022/04/09 04:14:46;;;;;;;7.72;1.80;;;6.20;75.00;;;;;;5132688;28;20055;-64
2022/04/09 04:17:12;;;;;;;4.32;1.15;;;6.20;74.80;;;;;;5132706;28;20038;-64
2022/04/09 04:19:39;;;;;;;5.30;1.10;;;6.20;75.00;;;;;;5131657;28;20587;-64
2022/04/09 04:22:05;;;;;;;5.25;1.20;;;6.20;74.80;;;;;;5132799;28;20019;-64
2022/04/09 04:24:31;;;;;;;8.90;1.80;;;6.20;74.90;;;;;;5132632;28;20027;-64
2022/04/09 04:26:56;;;;;;;7.68;1.10;;;6.20;75.00;;;;;;5132512;28;20035;-64
2022/04/09 04:29:22;;;;;;;6.63;1.65;;;6.20;75.10;;;;;;5132462;28;20024;-64
2022/04/09 04:31:47;;;;;;;4.07;1.30;;;6.20;75.00;;;;;;5132490;28;20044;-64
2022/04/09 04:34:13;;;;;;;4.85;1.50;;;6.20;75.60;;;;;;5132494;28;20027;-64
2022/04/09 04:36:39;;;;;;;7.32;1.33;;;6.20;74.80;;;;;;5132411;28;20042;-64
2022/04/09 04:39:05;;;;;;;10.00;1.90;;;6.20;74.80;;;;;;5090298;28;1176507;-64
2022/04/09 04:41:30;;;;;;;8.00;1.55;;;6.10;74.90;;;;;;5133377;28;20032;-64
2022/04/09 04:43:56;;;;;;;7.75;1.92;;;6.10;74.80;;;;;;5132175;28;20121;-64
2022/04/09 04:46:21;;;;;;;7.60;1.65;;;6.10;74.70;;;;;;5133238;28;20036;-64
2022/04/09 04:48:47;;;;;;;4.75;1.27;;;6.00;74.80;;;;;;5133256;28;20043;-64
2022/04/09 04:51:13;;;;;;;5.00;1.10;;;6.00;74.90;;;;;;5133242;28;20043;-64
2022/04/09 04:53:39;;;;;;;10.15;1.40;;;5.90;75.10;;;;;;5133269;28;20047;-64
2022/04/09 04:56:04;;;;;;;6.90;1.63;;;5.80;75.20;;;;;;5133336;28;20032;-64
2022/04/09 04:58:30;;;;;;;6.75;1.60;;;5.80;75.40;;;;;;5132249;28;20016;-64
2022/04/09 05:00:56;;;;;;;4.10;1.23;;;5.80;75.90;;;;;;5133165;28;20505;-64
2022/04/09 05:03:22;;;;;;;7.70;1.50;;;5.80;75.80;;;;;;5136171;28;20030;-64
2022/04/09 05:05:48;;;;;;;6.80;1.40;;;5.70;75.90;;;;;;5136855;28;20027;-64
2022/04/09 05:08:13;;;;;;;6.18;1.95;;;5.70;76.20;;;;;;5136704;28;20023;-64
2022/04/09 05:10:39;;;;;;;8.68;1.40;;;5.70;76.20;;;;;;5136752;28;20028;-64
2022/04/09 05:13:05;;;;;;;9.15;1.85;;;5.70;76.40;;;;;;5135640;28;20030;-65
2022/04/09 05:15:31;;;;;;;7.65;1.52;;;5.60;76.80;;;;;;5135690;28;20027;-64
2022/04/09 05:17:57;;;;;;;6.28;1.77;;;5.60;76.60;;;;;;5136595;27;20059;-64
2022/04/09 05:20:23;;;;;;;8.35;1.67;;;5.60;76.60;;;;;;5136517;27;20028;-64
2022/04/09 05:22:49;;;;;;;11.13;1.90;;;5.60;76.70;;;;;;5136464;28;20034;-64
2022/04/09 05:25:20;;;;;;;8.90;2.10;;;5.60;77.30;;;;;;5136443;28;20092;-64
2022/04/09 05:27:48;;;;;;;9.88;1.38;;;5.60;77.10;;;;;;5136305;28;20023;-64
2022/04/09 05:30:14;;;;;;;6.50;1.42;;;5.60;77.70;;;;;;5136374;28;20035;-64
2022/04/09 05:32:39;;;;;;;4.72;1.42;;;5.60;77.50;;;;;;5136291;28;20020;-65
2022/04/09 05:35:09;;;;;;;7.78;2.28;;;5.60;77.60;;;;;;5136223;28;20034;-64
2022/04/09 05:37:35;;;;;;;9.00;1.85;;;5.70;77.40;;;;;;5134950;28;20024;-65
2022/04/09 05:40:00;;;;;;;7.10;1.45;;;5.70;77.20;;;;;;5136064;28;20040;-64
2022/04/09 05:42:26;;;;;;;8.77;2.45;;;5.70;77.20;;;;;;5136064;28;20028;-64
2022/04/09 05:44:55;;;;;;;7.50;1.70;;;5.70;77.10;;;;;;5136040;28;20036;-65
2022/04/09 05:47:21;;;;;;;4.53;1.50;;;5.80;77.40;;;;;;5135908;28;20019;-64
2022/04/09 05:49:47;;;;;;;6.38;1.35;;;5.70;77.40;;;;;;5135970;28;20112;-64
2022/04/09 05:52:13;;;;;;;7.93;1.70;;;5.70;77.50;;;;;;5135910;28;20020;-65
2022/04/09 05:54:38;;;;;;;6.60;1.70;;;5.80;77.40;;;;;;5135857;28;20022;-65
2022/04/09 05:57:05;;;;;;;5.90;1.38;;;5.80;77.40;;;;;;5135830;28;20472;-65
2022/04/09 05:59:31;;;;;;;6.75;1.48;;;5.90;77.30;;;;;;5135787;28;20020;-64
2022/04/09 06:01:57;;;;;;;6.78;1.50;;;6.00;77.70;;;;;;5134793;28;20586;-65
2022/04/09 06:04:23;;;;;;;6.13;1.15;;;6.00;78.00;;;;;;5135720;27;20481;-65
2022/04/09 06:06:49;;;;;;;6.13;1.83;;;6.10;78.30;;;;;;5134434;28;20057;-65
2022/04/09 06:09:15;;;;;;;6.18;1.45;;;6.10;77.50;;;;;;5135573;28;20107;-64
2022/04/09 06:11:42;;;;;;;5.05;1.23;;;6.20;77.30;;;;;;5135503;28;20016;-64
2022/04/09 06:14:08;;;;;;;6.85;1.30;;;6.20;77.10;;;;;;5134498;28;20036;-64
2022/04/09 06:16:35;;;;;;;6.78;1.58;;;6.20;76.90;;;;;;5135478;28;20038;-64
2022/04/09 06:19:01;;;;;;;6.68;1.67;;;6.30;76.80;;;;;;5135426;28;20102;-65
2022/04/09 06:21:29;;;;;;;6.65;1.30;;;6.30;76.90;;;;;;5135352;27;20053;-64
2022/04/09 06:23:56;;;;;;;6.90;1.70;;;6.30;76.80;;;;;;5135328;28;20079;-64
2022/04/09 06:26:22;;;;;;;8.73;1.83;;;6.40;76.40;;;;;;5135152;28;20019;-64
2022/04/09 06:28:48;;;;;;;5.35;1.30;;;6.40;76.40;;;;;;5135113;28;20035;-64
2022/04/09 06:31:13;;;;;;;5.75;1.67;;;6.40;76.50;;;;;;5135094;28;20015;-64
2022/04/09 06:33:39;;;;;;;12.35;1.65;;;6.40;76.70;;;;;;5135159;28;20024;-65
2022/04/09 06:36:05;;;;;;;8.73;2.03;;;6.40;76.50;;;;;;5133704;28;20042;-65
2022/04/09 06:38:33;;;;;;;8.80;2.10;;;6.40;76.40;;;;;;5134758;28;20077;-65
2022/04/09 06:40:58;;;;;;;8.15;1.67;;;6.40;76.00;;;;;;5134971;28;20020;-64
2022/04/09 06:43:26;;;;;;;6.38;1.90;;;6.50;76.40;;;;;;5135012;28;20061;-65
2022/04/09 06:45:52;;;;;;;8.80;1.77;;;6.60;76.70;;;;;;5134684;28;20016;-65
2022/04/09 06:48:17;;;;;;;6.57;1.55;;;6.60;76.70;;;;;;5134715;28;20032;-65
2022/04/09 06:50:43;;;;;;;8.25;1.73;;;6.70;75.90;;;;;;5134843;28;20050;-65
2022/04/09 06:53:08;;;;;;;10.75;2.22;;;6.80;75.90;;;;;;5134687;28;20023;-65
2022/04/09 06:55:34;;;;;;;8.38;1.90;;;6.90;75.80;;;;;;5134619;28;20035;-64
2022/04/09 06:58:01;;;;;;;7.68;1.60;;;7.00;75.50;;;;;;5134610;28;20079;-65
2022/04/09 07:00:28;;;;;;;4.32;1.73;;;7.00;75.30;;;;;;5134571;28;20027;-65
2022/04/09 07:02:53;;;;;;;8.30;2.03;;;7.10;75.10;;;;;;5134572;28;20032;-65
2022/04/09 07:05:19;;;;;;;5.60;1.42;;;7.10;75.30;;;;;;5134462;28;20035;-65
2022/04/09 07:07:48;;;;;;;5.78;1.23;;;7.20;74.30;;;;;;5134367;28;20070;-65
2022/04/09 07:10:15;;;;;;;1.88;0.57;;;7.20;73.50;;;;;;5134438;28;20051;-65
2022/04/09 07:12:40;;;;;;;2.70;1.02;;;7.20;72.60;;;;;;5134324;28;20041;-65
2022/04/09 07:15:07;;;;;;;3.53;1.00;;;7.20;72.50;;;;;;5134257;28;20052;-65
2022/04/09 07:17:33;;;;;;;2.72;0.90;;;7.20;72.50;;;;;;5134291;28;20023;-65
2022/04/09 07:20:00;;;;;;;3.15;0.85;;;7.10;72.30;;;;;;5134198;28;20054;-65
2022/04/09 07:22:26;;;;;;;4.28;1.00;;;7.10;72.10;;;;;;5134214;28;20023;-65
2022/04/09 07:24:52;;;;;;;3.47;0.95;;;7.00;72.60;;;;;;5132943;28;20083;-65
2022/04/09 07:27:18;;;;;;;4.30;1.00;;;7.00;72.70;;;;;;5134013;28;20020;-65
2022/04/09 07:29:43;;;;;;;3.97;1.23;;;7.00;72.50;;;;;;5134024;28;20091;-65
2022/04/09 07:32:09;;;;;;;3.28;0.80;;;7.00;72.20;;;;;;5133824;28;20054;-65
2022/04/09 07:34:34;;;;;;;3.38;0.80;;;7.10;71.20;;;;;;5133997;28;20031;-66
2022/04/09 07:37:00;;;;;;;1.90;0.70;;;7.10;71.00;;;;;;5134016;28;20051;-65
2022/04/09 07:39:26;;;;;;;3.53;0.75;;;7.20;70.60;;;;;;5133782;28;20056;-64
2022/04/09 07:41:51;;;;;;;4.80;0.80;;;7.20;70.40;;;;;;5133857;28;20024;-64
2022/04/09 07:44:17;;;;;;;5.55;1.10;;;7.20;70.10;;;;;;5133866;28;20055;-64
2022/04/09 07:46:43;;;;;;;3.55;0.70;;;7.20;69.90;;;;;;5133819;28;20075;-64
2022/04/09 07:49:08;;;;;;;3.03;1.23;;;7.20;72.20;;;;;;5133802;28;20023;-65
2022/04/09 07:51:34;;;;;;;2.05;0.68;;;7.30;71.70;;;;;;5133830;28;20024;-65
2022/04/09 07:54:00;;;;;;;2.00;1.00;;;7.40;72.00;;;;;;5133761;28;20028;-65
2022/04/09 07:56:25;;;;;;;3.60;1.00;;;7.50;73.00;;;;;;5133849;28;20031;-65
2022/04/09 07:58:51;;;;;;;6.10;1.30;;;7.60;73.00;;;;;;5133745;28;20020;-65
2022/04/09 08:01:16;;;;;;;1.30;0.63;;;7.50;75.10;;;;;;5133713;28;20388;-64
2022/04/09 08:03:42;;;;;;;1.10;0.68;;;7.20;74.90;;;;;;5133579;28;20039;-64
2022/04/09 08:06:08;;;;;;;0.70;0.43;;;7.00;75.10;;;;;;5133737;28;20028;-64
2022/04/09 08:08:33;;;;;;;1.08;0.32;;;6.80;75.30;;;;;;5133625;28;20032;-64
2022/04/09 08:11:00;;;;;;;0.43;0.22;;;6.70;75.70;;;;;;5133602;28;20024;-65
2022/04/09 08:13:26;;;;;;;0.50;0.32;;;6.60;74.40;;;;;;5133643;28;20091;-64
2022/04/09 08:15:51;;;;;;;0.57;0.30;;;6.60;74.80;;;;;;5133567;28;20015;-64
2022/04/09 08:18:17;;;;;;;1.60;0.30;;;6.60;75.80;;;;;;5133598;28;20411;-65
2022/04/09 08:20:43;;;;;;;2.20;0.43;;;6.60;75.20;;;;;;5133630;28;20016;-64
2022/04/09 08:23:09;;;;;;;2.40;0.70;;;6.60;75.90;;;;;;5133472;28;20059;-65
2022/04/09 08:25:34;;;;;;;2.90;0.90;;;6.60;76.50;;;;;;5132549;28;20027;-64
2022/04/09 08:28:00;;;;;;;5.10;1.10;;;6.70;77.00;;;;;;5133305;28;20051;-64
2022/04/09 08:30:26;;;;;;;3.17;1.13;;;6.70;78.40;;;;;;5133417;28;20043;-64
2022/04/09 08:32:52;;;;;;;3.53;1.45;;;6.70;79.20;;;;;;5133387;28;20028;-64
2022/04/09 08:35:18;;;;;;;5.55;1.55;;;6.80;79.90;;;;;;5133407;28;20115;-64
2022/04/09 08:37:52;;;;;;;5.03;1.67;;;6.90;82.00;;;;;;5135397;28;20043;-65
2022/04/09 08:40:18;;;;;;;3.60;1.60;;;7.10;81.80;;;;;;5137410;28;20047;-64
2022/04/09 08:42:44;;;;;;;5.30;1.95;;;7.20;81.10;;;;;;5137255;28;20032;-65
2022/04/09 08:45:10;;;;;;;4.28;1.63;;;7.30;80.60;;;;;;5137285;28;20042;-64
2022/04/09 08:47:36;;;;;;;7.28;2.00;;;7.40;80.20;;;;;;5137117;28;20038;-65
2022/04/09 08:50:03;;;;;;;9.43;2.10;;;7.50;80.60;;;;;;5137141;28;20028;-64
2022/04/09 08:52:29;;;;;;;4.53;1.75;;;7.60;80.80;;;;;;5137115;28;20020;-64
2022/04/09 08:54:54;;;;;;;4.07;1.30;;;7.70;80.40;;;;;;5137024;28;20024;-64
2022/04/09 08:57:20;;;;;;;3.10;0.75;;;7.70;79.20;;;;;;5137153;28;20024;-64
2022/04/09 08:59:46;;;;;;;1.35;0.50;;;7.60;77.10;;;;;;5136953;28;20031;-65
2022/04/09 09:02:12;;;;;;;1.60;0.82;;;7.60;76.70;;;;;;5136899;28;20031;-65
2022/04/09 09:04:38;;;;;;;2.08;0.47;;;7.60;77.20;;;;;;5135773;28;20023;-64
2022/04/09 09:07:24;;;;;;;3.70;0.75;;;7.80;77.10;;;;;;5135735;28;20024;-65
2022/04/09 09:09:51;;;;;;;2.72;0.90;;;8.00;76.60;;;;;;5136785;28;20020;-65
2022/04/09 09:12:30;;;;;;;1.65;0.60;;;8.10;76.00;;;;;;5136702;28;20077;-65
2022/04/09 09:14:57;;;;;;;0.85;0.60;;;8.20;76.70;;;;;;5136710;28;20116;-64
2022/04/09 09:17:30;;;;;;;2.05;0.60;;;8.30;75.00;;;;;;5136626;28;20035;-65
2022/04/09 09:19:56;;;;;;;5.28;0.80;;;8.40;73.40;;;;;;5135647;28;20028;-65
2022/04/09 09:22:35;;;;;;;3.30;1.02;;;8.60;75.10;;;;;;5136515;28;20026;-64
2022/04/09 09:25:09;;;;;;;3.08;0.95;;;8.80;73.00;;;;;;5136510;28;20023;-65
2022/04/09 09:27:35;;;;;;;5.10;1.17;;;9.00;73.80;;;;;;5136341;28;20039;-64
2022/04/09 09:30:01;;;;;;;3.30;1.40;;;9.00;71.50;;;;;;5136398;28;20080;-65
2022/04/09 09:32:29;;;;;;;6.72;1.98;;;9.10;71.70;;;;;;5136266;28;20030;-64
2022/04/09 09:34:59;;;;;;;4.28;1.40;;;9.20;71.10;;;;;;5136233;28;20514;-64
2022/04/09 09:37:28;;;;;;;3.88;1.40;;;9.30;70.50;;;;;;5136022;28;20027;-64
2022/04/09 09:39:54;;;;;;;6.38;1.50;;;9.40;70.10;;;;;;5135459;28;20023;-65
2022/04/09 09:42:25;;;;;;;3.95;1.33;;;9.50;70.10;;;;;;5136116;27;20027;-65
2022/04/09 09:44:52;;;;;;;3.03;1.20;;;9.70;70.50;;;;;;5136113;28;20028;-65
2022/04/09 09:47:17;;;;;;;4.15;1.40;;;9.80;68.70;;;;;;5135919;28;20072;-65
2022/04/09 09:49:59;;;;;;;4.10;1.05;;;9.70;69.00;;;;;;5136017;28;20024;-64
2022/04/09 09:52:34;;;;;;;1.30;0.40;;;9.70;68.10;;;;;;5136108;27;20043;-64
2022/04/09 09:55:01;;;;;;;12.80;0.68;;;9.60;65.00;;;;;;5135914;28;20079;-65
2022/04/09 09:57:30;;;;;;;3.58;0.50;;;9.50;63.80;;;;;;5135842;28;20032;-65
2022/04/09 09:59:58;;;;;;;2.47;0.65;;;9.40;63.10;;;;;;5135790;28;20049;-65
2022/04/09 10:02:25;;;;;;;1.45;0.80;;;9.40;63.20;;;;;;5135732;28;20031;-65
2022/04/09 10:04:54;;;;;;;2.10;1.02;;;9.30;64.30;;;;;;5135746;28;20487;-65
2022/04/09 10:07:20;;;;;;;2.90;0.70;;;9.30;65.70;;;;;;5135611;28;20024;-65
2022/04/09 10:09:49;;;;;;;2.50;0.68;;;9.30;66.00;;;;;;5135609;28;20032;-65
2022/04/09 10:12:18;;;;;;;1.95;1.00;;;9.20;66.90;;;;;;5135524;28;20020;-65
2022/04/09 10:14:51;;;;;;;2.10;0.98;;;9.30;67.60;;;;;;5135523;28;20388;-65
2022/04/09 10:17:20;;;;;;;2.47;1.20;;;9.40;67.90;;;;;;5135599;28;20028;-65
2022/04/09 10:19:53;;;;;;;5.43;1.42;;;9.50;67.90;;;;;;5135398;28;20087;-65
2022/04/09 10:22:19;;;;;;;5.03;1.55;;;9.60;67.70;;;;;;5135384;28;20487;-65
2022/04/09 10:24:46;;;;;;;2.95;1.10;;;9.80;67.50;;;;;;5134334;28;20027;-65
2022/04/09 10:27:47;;;;;;;5.00;1.42;;;9.90;65.60;;;;;;5135149;28;20028;-65
2022/04/09 10:30:16;;;;;;;3.30;1.10;;;10.00;65.30;;;;;;5135267;28;20015;-65
2022/04/09 10:32:48;;;;;;;3.60;1.17;;;10.20;65.80;;;;;;5135192;28;20016;-65
2022/04/09 10:35:30;;;;;;;4.25;1.60;;;10.30;64.60;;;;;;5135147;28;20016;-65
2022/04/09 10:38:14;;;;;;;3.10;1.67;;;10.40;64.70;;;;;;5134836;28;20451;-65
2022/04/09 10:40:42;;;;;;;3.00;1.20;;;10.60;65.70;;;;;;5135129;28;20024;-64
2022/04/09 10:43:09;;;;;;;2.67;1.23;;;10.80;65.10;;;;;;5134905;28;20032;-64
2022/04/09 10:46:00;;;;;;;8.27;1.50;;;10.90;63.80;;;;;;5134645;28;20028;-65
2022/04/09 10:48:30;;;;;;;5.63;1.73;;;11.00;63.40;;;;;;5134821;28;20020;-65
2022/04/09 10:51:01;;;;;;;3.63;1.35;;;11.00;61.80;;;;;;5134731;28;20069;-64
2022/04/09 10:53:32;;;;;;;7.13;1.70;;;11.00;61.90;;;;;;5134721;28;20020;-66
2022/04/09 10:56:26;;;;;;;5.32;1.40;;;11.10;61.80;;;;;;5134751;28;20028;-64
2022/04/09 10:59:18;;;;;;;6.32;1.65;;;11.20;60.10;;;;;;5134722;28;20045;-65
2022/04/09 11:01:43;;;;;;;6.28;1.73;;;11.30;61.00;;;;;;5134467;28;20083;-65
2022/04/09 11:04:36;;;;;;;3.33;1.85;;;11.50;62.80;;;;;;5134471;28;20023;-64
2022/04/09 11:07:18;;;;;;;3.22;1.15;;;11.60;61.40;;;;;;5131652;28;20069;-64
2022/04/09 11:10:03;;;;;;;2.72;0.80;;;11.50;61.70;;;;;;5134627;28;20523;-64
2022/04/09 11:12:37;;;;;;;2.75;1.15;;;11.30;61.00;;;;;;5133263;28;20024;-65
2022/04/09 11:15:17;;;;;;;2.75;1.10;;;11.20;62.00;;;;;;5133309;28;20361;-65
2022/04/09 11:17:48;;;;;;;4.78;1.13;;;11.10;62.90;;;;;;5134367;28;20048;-65
2022/04/09 11:20:18;;;;;;;4.95;1.10;;;11.20;63.50;;;;;;5134299;28;20071;-65
2022/04/09 11:22:53;;;;;;;5.28;1.45;;;11.30;63.50;;;;;;5134223;28;20556;-65
2022/04/09 11:25:25;;;;;;;2.47;1.02;;;11.40;63.20;;;;;;5134226;28;20028;-65
2022/04/09 11:27:52;;;;;;;6.00;1.20;;;11.50;62.70;;;;;;5133007;28;20035;-65
2022/04/09 11:30:19;;;;;;;7.07;1.33;;;11.60;62.80;;;;;;5134094;27;20465;-64
2022/04/09 11:32:48;;;;;;;3.67;1.30;;;11.60;60.80;;;;;;5134081;28;20047;-65
2022/04/09 11:35:15;;;;;;;5.70;1.30;;;11.60;60.80;;;;;;5134066;28;20094;-65
2022/04/09 11:37:43;;;;;;;4.20;1.20;;;11.60;61.00;;;;;;5132801;28;20035;-65
2022/04/09 11:40:11;;;;;;;5.70;1.30;;;11.70;60.00;;;;;;5133960;28;20083;-65
2022/04/09 11:42:48;;;;;;;3.47;1.42;;;11.80;60.50;;;;;;5133932;28;20027;-65
2022/04/09 11:45:23;;;;;;;3.33;1.25;;;12.00;61.60;;;;;;5134064;28;20069;-65
2022/04/09 11:47:50;;;;;;;5.90;1.65;;;12.20;59.80;;;;;;5133902;28;20023;-65
2022/04/09 11:50:17;;;;;;;2.50;1.02;;;12.30;58.90;;;;;;5133858;28;20071;-65
2022/04/09 11:52:43;;;;;;;4.90;1.30;;;12.30;58.90;;;;;;5133845;28;20031;-65
2022/04/09 11:55:11;;;;;;;4.03;1.35;;;12.30;56.00;;;;;;5133826;28;20028;-65
2022/04/09 11:57:38;;;;;;;6.65;1.60;;;12.20;56.70;;;;;;5133746;28;20109;-65
2022/04/09 12:00:09;;;;;;;3.45;1.20;;;12.00;57.60;;;;;;5133775;28;20060;-65
2022/04/09 12:02:36;;;;;;;2.78;1.10;;;11.80;57.80;;;;;;5132798;28;20049;-65
2022/04/09 12:05:02;;;;;;;3.58;1.05;;;11.60;58.10;;;;;;5133682;28;20031;-65
2022/04/09 12:07:30;;;;;;;2.90;1.08;;;11.50;59.10;;;;;;5133613;28;20035;-65
2022/04/09 12:09:56;;;;;;;5.25;0.85;;;11.40;59.00;;;;;;5133659;28;20050;-65
2022/04/09 12:12:23;;;;;;;5.18;1.35;;;11.40;59.20;;;;;;5135292;28;20016;-65
2022/04/09 12:14:57;;;;;;;3.60;1.10;;;11.50;58.70;;;;;;5137874;28;20027;-65
2022/04/09 12:17:32;;;;;;;2.80;1.30;;;11.60;59.90;;;;;;5137794;27;20079;-65
2022/04/09 12:19:58;;;;;;;3.03;1.20;;;11.80;59.60;;;;;;5137836;27;20024;-65
2022/04/09 12:22:24;;;;;;;4.40;1.40;;;12.00;60.30;;;;;;5137841;28;20051;-66
2022/04/09 12:24:57;;;;;;;6.05;1.58;;;12.10;59.30;;;;;;5137661;28;20089;-65
2022/04/09 12:27:43;;;;;;;5.57;1.70;;;12.10;58.30;;;;;;5137474;28;20024;-65
2022/04/09 12:30:10;;;;;;;2.10;0.77;;;11.90;59.50;;;;;;5137558;28;20016;-65
2022/04/09 12:32:36;;;;;;;2.42;0.77;;;11.70;58.30;;;;;;5137508;28;20020;-66
2022/04/09 12:35:12;;;;;;;3.92;0.90;;;11.50;57.40;;;;;;5137441;28;20023;-67
2022/04/09 12:37:50;;;;;;;5.20;1.55;;;11.30;58.80;;;;;;5137211;28;20044;-66
2022/04/09 12:40:25;;;;;;;2.67;1.40;;;11.20;59.30;;;;;;5136542;28;20043;-65
2022/04/09 12:42:51;;;;;;;3.70;1.00;;;11.10;59.10;;;;;;5136373;28;20120;-66
2022/04/09 12:45:21;;;;;;;2.10;0.90;;;11.20;59.90;;;;;;5137197;28;20052;-65
2022/04/09 12:47:56;;;;;;;2.40;0.80;;;11.30;60.00;;;;;;5137300;28;20483;-65
2022/04/09 12:50:30;;;;;;;1.23;0.60;;;11.50;57.30;;;;;;5136178;28;20031;-66
2022/04/09 12:52:58;;;;;;;3.35;1.00;;;11.50;56.40;;;;;;5136153;28;20012;-66
2022/04/09 12:55:25;;;;;;;7.47;1.02;;;11.70;58.10;;;;;;5137081;28;20023;-66
2022/04/09 12:57:54;;;;;;;2.10;0.63;;;11.90;56.70;;;;;;5137050;28;20043;-65